sensor_id;sensor_type;location;lat;lon;timestamp;pressure;altitude;pressure_sealevel;temperature;humidity
10618;BME280;5356;43.526;26.534;2023-03-25T00:00:16;98743.25;;;10.83;100.00
10618;BME280;5356;43.526;26.534;2023-03-25T00:02:48;98741.28;;;10.78;100.00
10618;BME280;5356;43.526;26.534;2023-03-25T00:05:16;98747.31;;;10.74;100.00
10618;BME280;5356;43.526;26.534;2023-03-25T00:07:44;98744.50;;;10.69;100.00
10618;BME280;5356;43.526;26.534;2023-03-25T00:10:11;98737.56;;;10.68;100.00
10618;BME280;5356;43.526;26.534;2023-03-25T00:12:37;98734.31;;;10.66;100.00
10618;BME280;5356;43.526;26.534;2023-03-25T00:15:07;98736.50;;;10.57;100.00
10618;BME280;5356;43.526;26.534;2023-03-25T00:17:33;98731.19;;;10.57;100.00
10618;BME280;5356;43.526;26.534;2023-03-25T00:20:00;98720.19;;;10.53;100.00
10618;BME280;5356;43.526;26.534;2023-03-25T00:22:28;98733.28;;;10.55;100.00
10618;BME280;5356;43.526;26.534;2023-03-25T00:24:53;98729.09;;;10.47;100.00
10618;BME280;5356;43.526;26.534;2023-03-25T00:27:19;98722.16;;;10.46;100.00
10618;BME280;5356;43.526;26.534;2023-03-25T00:29:45;98726.31;;;10.54;100.00
10618;BME280;5356;43.526;26.534;2023-03-25T00:32:12;98731.66;;;10.54;100.00
10618;BME280;5356;43.526;26.534;2023-03-25T00:34:37;98728.06;;;10.48;100.00
10618;BME280;5356;43.526;26.534;2023-03-25T00:37:09;98723.88;;;10.52;100.00
10618;BME280;5356;43.526;26.534;2023-03-25T00:39:35;98720.41;;;10.52;100.00
10618;BME280;5356;43.526;26.534;2023-03-25T00:42:01;98724.13;;;10.39;100.00
10618;BME280;5356;43.526;26.534;2023-03-25T00:44:27;98727.81;;;10.38;100.00
10618;BME280;5356;43.526;26.534;2023-03-25T00:46:53;98724.59;;;10.48;100.00
10618;BME280;5356;43.526;26.534;2023-03-25T00:49:18;98725.53;;;10.53;100.00
10618;BME280;5356;43.526;26.534;2023-03-25T00:51:51;98728.75;;;10.55;100.00
10618;BME280;5356;43.526;26.534;2023-03-25T00:54:17;98721.34;;;10.57;100.00
10618;BME280;5356;43.526;26.534;2023-03-25T00:56:43;98717.28;;;10.55;100.00
10618;BME280;5356;43.526;26.534;2023-03-25T00:59:08;98713.34;;;10.57;100.00
10618;BME280;5356;43.526;26.534;2023-03-25T01:01:34;98709.19;;;10.62;100.00
10618;BME280;5356;43.526;26.534;2023-03-25T01:04:05;98706.88;;;10.65;100.00
10618;BME280;5356;43.526;26.534;2023-03-25T01:06:38;98700.16;;;10.63;100.00
10618;BME280;5356;43.526;26.534;2023-03-25T01:09:07;98694.59;;;10.52;100.00
10618;BME280;5356;43.526;26.534;2023-03-25T01:11:34;98705.56;;;10.32;100.00
10618;BME280;5356;43.526;26.534;2023-03-25T01:14:03;98704.03;;;10.25;100.00
10618;BME280;5356;43.526;26.534;2023-03-25T01:16:29;98700.50;;;10.31;100.00
10618;BME280;5356;43.526;26.534;2023-03-25T01:18:54;98702.91;;;10.32;100.00
10618;BME280;5356;43.526;26.534;2023-03-25T01:21:20;98703.50;;;10.34;100.00
10618;BME280;5356;43.526;26.534;2023-03-25T01:23:46;98686.72;;;10.34;100.00
10618;BME280;5356;43.526;26.534;2023-03-25T01:26:11;98675.94;;;10.29;100.00
10618;BME280;5356;43.526;26.534;2023-03-25T01:28:41;98678.22;;;10.25;100.00
10618;BME280;5356;43.526;26.534;2023-03-25T01:31:08;98671.06;;;10.26;100.00
10618;BME280;5356;43.526;26.534;2023-03-25T01:33:34;98659.97;;;10.29;100.00
10618;BME280;5356;43.526;26.534;2023-03-25T01:36:00;98660.28;;;10.21;100.00
10618;BME280;5356;43.526;26.534;2023-03-25T01:38:27;98660.53;;;10.19;100.00
10618;BME280;5356;43.526;26.534;2023-03-25T01:40:53;98656.81;;;10.20;100.00
10618;BME280;5356;43.526;26.534;2023-03-25T01:43:20;98660.28;;;10.21;100.00
10618;BME280;5356;43.526;26.534;2023-03-25T01:45:45;98653.22;;;10.15;100.00
10618;BME280;5356;43.526;26.534;2023-03-25T01:48:17;98646.38;;;10.07;100.00
10618;BME280;5356;43.526;26.534;2023-03-25T01:50:57;98657.25;;;9.94;100.00
10618;BME280;5356;43.526;26.534;2023-03-25T01:53:26;98647.13;;;9.72;100.00
10618;BME280;5356;43.526;26.534;2023-03-25T01:55:54;98642.47;;;9.67;100.00
10618;BME280;5356;43.526;26.534;2023-03-25T01:58:21;98632.28;;;9.64;100.00
10618;BME280;5356;43.526;26.534;2023-03-25T02:00:49;98633.66;;;9.55;100.00
10618;BME280;5356;43.526;26.534;2023-03-25T02:03:18;98624.94;;;9.48;100.00
10618;BME280;5356;43.526;26.534;2023-03-25T02:05:53;98627.50;;;9.43;100.00
10618;BME280;5356;43.526;26.534;2023-03-25T02:08:21;98629.44;;;9.36;100.00
10618;BME280;5356;43.526;26.534;2023-03-25T02:10:47;98627.81;;;9.35;100.00
10618;BME280;5356;43.526;26.534;2023-03-25T02:13:13;98625.72;;;9.37;100.00
10618;BME280;5356;43.526;26.534;2023-03-25T02:21:31;98628.47;;;9.60;100.00
10618;BME280;5356;43.526;26.534;2023-03-25T02:27:19;98625.59;;;9.74;100.00
10618;BME280;5356;43.526;26.534;2023-03-25T02:38:52;98619.47;;;9.73;100.00
10618;BME280;5356;43.526;26.534;2023-03-25T02:41:46;98621.34;;;9.73;100.00
10618;BME280;5356;43.526;26.534;2023-03-25T02:44:36;98613.81;;;9.70;100.00
10618;BME280;5356;43.526;26.534;2023-03-25T02:47:08;98612.06;;;9.63;100.00
10618;BME280;5356;43.526;26.534;2023-03-25T02:49:38;98606.50;;;9.65;100.00
10618;BME280;5356;43.526;26.534;2023-03-25T02:52:25;98616.19;;;9.59;100.00
10618;BME280;5356;43.526;26.534;2023-03-25T02:54:54;98605.56;;;9.59;100.00
10618;BME280;5356;43.526;26.534;2023-03-25T02:57:24;98605.00;;;9.57;100.00
10618;BME280;5356;43.526;26.534;2023-03-25T02:59:54;98609.72;;;9.55;100.00
10618;BME280;5356;43.526;26.534;2023-03-25T03:02:21;98618.50;;;9.56;100.00
10618;BME280;5356;43.526;26.534;2023-03-25T03:04:53;98615.63;;;9.57;100.00
10618;BME280;5356;43.526;26.534;2023-03-25T03:07:25;98614.69;;;9.52;100.00
10618;BME280;5356;43.526;26.534;2023-03-25T03:10:09;98617.34;;;9.52;100.00
10618;BME280;5356;43.526;26.534;2023-03-25T03:21:19;98592.81;;;9.38;100.00
10618;BME280;5356;43.526;26.534;2023-03-25T03:27:23;98583.88;;;9.32;100.00
10618;BME280;5356;43.526;26.534;2023-03-25T03:29:26;98583.75;;;9.27;100.00
10618;BME280;5356;43.526;26.534;2023-03-25T03:32:01;98585.31;;;9.16;100.00
10618;BME280;5356;43.526;26.534;2023-03-25T03:37:02;98583.03;;;9.20;100.00
10618;BME280;5356;43.526;26.534;2023-03-25T03:39:31;98581.06;;;9.15;100.00
10618;BME280;5356;43.526;26.534;2023-03-25T03:42:26;98572.72;;;9.12;100.00
10618;BME280;5356;43.526;26.534;2023-03-25T03:44:53;98565.22;;;9.09;100.00
10618;BME280;5356;43.526;26.534;2023-03-25T03:47:24;98572.59;;;9.07;100.00
10618;BME280;5356;43.526;26.534;2023-03-25T03:49:57;98565.63;;;9.06;100.00
10618;BME280;5356;43.526;26.534;2023-03-25T03:52:30;98566.91;;;9.03;100.00
10618;BME280;5356;43.526;26.534;2023-03-25T03:55:04;98560.78;;;9.03;100.00
10618;BME280;5356;43.526;26.534;2023-03-25T03:57:40;98564.13;;;8.98;100.00
10618;BME280;5356;43.526;26.534;2023-03-25T04:00:11;98557.16;;;8.97;100.00
10618;BME280;5356;43.526;26.534;2023-03-25T04:02:42;98564.34;;;8.96;100.00
10618;BME280;5356;43.526;26.534;2023-03-25T04:05:14;98570.25;;;8.98;100.00
10618;BME280;5356;43.526;26.534;2023-03-25T04:07:46;98583.38;;;8.93;100.00
10618;BME280;5356;43.526;26.534;2023-03-25T04:10:28;98581.25;;;8.84;100.00
10618;BME280;5356;43.526;26.534;2023-03-25T04:13:01;98577.81;;;8.83;100.00
10618;BME280;5356;43.526;26.534;2023-03-25T04:15:28;98576.97;;;8.83;100.00
10618;BME280;5356;43.526;26.534;2023-03-25T04:17:53;98581.47;;;8.82;100.00
10618;BME280;5356;43.526;26.534;2023-03-25T04:20:22;98586.56;;;8.84;100.00
10618;BME280;5356;43.526;26.534;2023-03-25T04:22:49;98581.25;;;8.84;100.00
10618;BME280;5356;43.526;26.534;2023-03-25T04:25:16;98580.53;;;8.76;100.00
10618;BME280;5356;43.526;26.534;2023-03-25T04:27:42;98583.47;;;8.68;100.00
10618;BME280;5356;43.526;26.534;2023-03-25T04:30:10;98568.00;;;8.65;100.00
10618;BME280;5356;43.526;26.534;2023-03-25T04:32:36;98569.25;;;8.63;100.00
10618;BME280;5356;43.526;26.534;2023-03-25T04:35:01;98575.28;;;8.51;100.00
10618;BME280;5356;43.526;26.534;2023-03-25T04:37:27;98572.63;;;8.51;100.00
10618;BME280;5356;43.526;26.534;2023-03-25T04:39:53;98574.84;;;8.54;100.00
10618;BME280;5356;43.526;26.534;2023-03-25T04:42:23;98575.28;;;8.51;100.00
10618;BME280;5356;43.526;26.534;2023-03-25T04:44:56;98572.28;;;8.48;100.00
10618;BME280;5356;43.526;26.534;2023-03-25T04:47:23;98563.59;;;8.41;100.00
10618;BME280;5356;43.526;26.534;2023-03-25T04:49:49;98577.56;;;8.29;100.00
10618;BME280;5356;43.526;26.534;2023-03-25T04:52:15;98574.91;;;8.29;100.00
10618;BME280;5356;43.526;26.534;2023-03-25T04:54:40;98581.97;;;8.36;100.00
10618;BME280;5356;43.526;26.534;2023-03-25T04:57:06;98585.19;;;8.38;100.00
10618;BME280;5356;43.526;26.534;2023-03-25T04:59:35;98583.34;;;8.45;100.00
10618;BME280;5356;43.526;26.534;2023-03-25T05:02:01;98576.53;;;8.49;100.00
10618;BME280;5356;43.526;26.534;2023-03-25T05:04:27;98574.78;;;8.61;100.00
10618;BME280;5356;43.526;26.534;2023-03-25T05:06:53;98584.22;;;8.75;100.00
10618;BME280;5356;43.526;26.534;2023-03-25T05:09:21;98584.94;;;8.83;100.00
10618;BME280;5356;43.526;26.534;2023-03-25T05:11:48;98574.59;;;8.93;100.00
10618;BME280;5356;43.526;26.534;2023-03-25T05:14:16;98575.19;;;8.95;100.00
10618;BME280;5356;43.526;26.534;2023-03-25T05:16:43;98573.56;;;8.94;100.00
10618;BME280;5356;43.526;26.534;2023-03-25T05:19:09;98572.09;;;8.98;100.00
10618;BME280;5356;43.526;26.534;2023-03-25T05:21:36;98580.47;;;9.13;100.00
10618;BME280;5356;43.526;26.534;2023-03-25T05:24:03;98583.84;;;9.20;100.00
10618;BME280;5356;43.526;26.534;2023-03-25T05:26:28;98573.94;;;9.28;100.00
10618;BME280;5356;43.526;26.534;2023-03-25T05:29:00;98569.66;;;9.27;100.00
10618;BME280;5356;43.526;26.534;2023-03-25T05:31:26;98572.00;;;9.35;100.00
10618;BME280;5356;43.526;26.534;2023-03-25T05:33:52;98562.31;;;9.40;100.00
10618;BME280;5356;43.526;26.534;2023-03-25T05:36:19;98568.00;;;9.56;100.00
10618;BME280;5356;43.526;26.534;2023-03-25T05:38:45;98573.47;;;9.73;100.00
10618;BME280;5356;43.526;26.534;2023-03-25T05:41:13;98577.06;;;9.90;100.00
10618;BME280;5356;43.526;26.534;2023-03-25T05:43:43;98579.97;;;10.00;100.00
10618;BME280;5356;43.526;26.534;2023-03-25T05:46:12;98577.78;;;10.09;100.00
10618;BME280;5356;43.526;26.534;2023-03-25T05:48:39;98590.59;;;10.24;100.00
10618;BME280;5356;43.526;26.534;2023-03-25T05:51:11;98584.50;;;10.35;100.00
10618;BME280;5356;43.526;26.534;2023-03-25T05:53:38;98578.13;;;10.48;100.00
10618;BME280;5356;43.526;26.534;2023-03-25T05:56:04;98578.47;;;10.51;100.00
10618;BME280;5356;43.526;26.534;2023-03-25T05:58:30;98576.13;;;10.67;100.00
10618;BME280;5356;43.526;26.534;2023-03-25T06:00:57;98574.72;;;10.76;100.00
10618;BME280;5356;43.526;26.534;2023-03-25T06:03:24;98568.56;;;10.75;100.00
10618;BME280;5356;43.526;26.534;2023-03-25T06:05:51;98572.34;;;10.91;100.00
10618;BME280;5356;43.526;26.534;2023-03-25T06:08:18;98574.97;;;11.03;100.00
10618;BME280;5356;43.526;26.534;2023-03-25T06:10:56;98577.09;;;11.18;100.00
10618;BME280;5356;43.526;26.534;2023-03-25T06:13:26;98568.25;;;11.29;100.00
10618;BME280;5356;43.526;26.534;2023-03-25T06:15:52;98571.19;;;11.44;100.00
10618;BME280;5356;43.526;26.534;2023-03-25T06:18:24;98574.69;;;11.62;100.00
10618;BME280;5356;43.526;26.534;2023-03-25T06:20:53;98576.06;;;11.81;100.00
10618;BME280;5356;43.526;26.534;2023-03-25T06:23:22;98576.34;;;11.97;100.00
10618;BME280;5356;43.526;26.534;2023-03-25T06:25:51;98573.34;;;12.10;100.00
10618;BME280;5356;43.526;26.534;2023-03-25T06:28:17;98571.94;;;12.24;100.00
10618;BME280;5356;43.526;26.534;2023-03-25T06:30:47;98566.63;;;12.46;100.00
10618;BME280;5356;43.526;26.534;2023-03-25T06:33:13;98566.59;;;12.63;100.00
10618;BME280;5356;43.526;26.534;2023-03-25T06:35:40;98570.50;;;12.77;100.00
10618;BME280;5356;43.526;26.534;2023-03-25T06:38:08;98571.25;;;12.95;100.00
10618;BME280;5356;43.526;26.534;2023-03-25T06:40:35;98576.25;;;13.13;100.00
10618;BME280;5356;43.526;26.534;2023-03-25T06:43:03;98568.72;;;13.32;100.00
10618;BME280;5356;43.526;26.534;2023-03-25T06:45:29;98578.25;;;13.50;100.00
10618;BME280;5356;43.526;26.534;2023-03-25T06:47:54;98582.44;;;13.68;100.00
10618;BME280;5356;43.526;26.534;2023-03-25T06:50:20;98575.25;;;13.74;100.00
10618;BME280;5356;43.526;26.534;2023-03-25T06:52:45;98582.31;;;13.85;100.00
10618;BME280;5356;43.526;26.534;2023-03-25T06:55:11;98580.88;;;14.09;100.00
10618;BME280;5356;43.526;26.534;2023-03-25T06:57:36;98582.53;;;14.21;100.00
10618;BME280;5356;43.526;26.534;2023-03-25T07:00:03;98575.66;;;14.35;100.00
10618;BME280;5356;43.526;26.534;2023-03-25T07:02:30;98575.22;;;14.48;100.00
10618;BME280;5356;43.526;26.534;2023-03-25T07:04:55;98575.59;;;14.62;100.00
10618;BME280;5356;43.526;26.534;2023-03-25T07:07:21;98562.53;;;14.81;100.00
10618;BME280;5356;43.526;26.534;2023-03-25T07:09:50;98560.97;;;14.90;100.00
10618;BME280;5356;43.526;26.534;2023-03-25T07:12:16;98569.03;;;15.05;100.00
10618;BME280;5356;43.526;26.534;2023-03-25T07:14:41;98570.69;;;15.17;100.00
10618;BME280;5356;43.526;26.534;2023-03-25T07:17:08;98568.53;;;15.19;100.00
10618;BME280;5356;43.526;26.534;2023-03-25T07:19:33;98557.84;;;15.39;100.00
10618;BME280;5356;43.526;26.534;2023-03-25T07:21:59;98569.41;;;15.60;100.00
10618;BME280;5356;43.526;26.534;2023-03-25T07:24:24;98558.69;;;15.70;100.00
10618;BME280;5356;43.526;26.534;2023-03-25T07:26:50;98554.94;;;15.82;100.00
10618;BME280;5356;43.526;26.534;2023-03-25T07:29:15;98564.09;;;15.91;100.00
10618;BME280;5356;43.526;26.534;2023-03-25T07:31:41;98557.88;;;15.96;99.21
10618;BME280;5356;43.526;26.534;2023-03-25T07:34:06;98559.50;;;16.07;99.57
10618;BME280;5356;43.526;26.534;2023-03-25T07:36:32;98562.16;;;16.22;99.09
10618;BME280;5356;43.526;26.534;2023-03-25T07:38:58;98565.06;;;16.46;99.00
10618;BME280;5356;43.526;26.534;2023-03-25T07:41:23;98557.47;;;16.58;97.77
10618;BME280;5356;43.526;26.534;2023-03-25T07:43:49;98559.38;;;16.58;96.47
10618;BME280;5356;43.526;26.534;2023-03-25T07:46:15;98560.69;;;16.66;96.79
10618;BME280;5356;43.526;26.534;2023-03-25T07:48:40;98550.97;;;16.80;96.87
10618;BME280;5356;43.526;26.534;2023-03-25T07:51:06;98545.81;;;16.94;96.74
10618;BME280;5356;43.526;26.534;2023-03-25T07:53:33;98548.13;;;17.11;96.10
10618;BME280;5356;43.526;26.534;2023-03-25T07:55:58;98546.19;;;17.21;95.15
10618;BME280;5356;43.526;26.534;2023-03-25T07:58:24;98549.34;;;17.34;94.01
10618;BME280;5356;43.526;26.534;2023-03-25T08:00:49;98542.81;;;17.45;93.84
10618;BME280;5356;43.526;26.534;2023-03-25T08:03:15;98558.41;;;17.48;92.49
10618;BME280;5356;43.526;26.534;2023-03-25T08:05:47;98545.38;;;17.60;92.81
10618;BME280;5356;43.526;26.534;2023-03-25T08:08:13;98547.13;;;17.80;92.23
10618;BME280;5356;43.526;26.534;2023-03-25T08:10:43;98540.50;;;17.97;90.11
10618;BME280;5356;43.526;26.534;2023-03-25T08:13:09;98545.47;;;18.13;90.17
10618;BME280;5356;43.526;26.534;2023-03-25T08:15:34;98548.25;;;18.32;89.02
10618;BME280;5356;43.526;26.534;2023-03-25T08:18:00;98543.78;;;18.47;89.10
10618;BME280;5356;43.526;26.534;2023-03-25T08:20:27;98539.25;;;18.66;88.70
10618;BME280;5356;43.526;26.534;2023-03-25T08:22:52;98540.97;;;18.81;87.98
10618;BME280;5356;43.526;26.534;2023-03-25T08:25:18;98529.53;;;18.65;83.75
10618;BME280;5356;43.526;26.534;2023-03-25T08:27:43;98533.16;;;18.55;81.83
10618;BME280;5356;43.526;26.534;2023-03-25T08:30:09;98533.53;;;18.49;79.60
10618;BME280;5356;43.526;26.534;2023-03-25T08:32:35;98530.09;;;18.62;79.50
10618;BME280;5356;43.526;26.534;2023-03-25T08:35:03;98534.03;;;18.94;79.72
10618;BME280;5356;43.526;26.534;2023-03-25T08:37:30;98534.59;;;19.15;79.25
10618;BME280;5356;43.526;26.534;2023-03-25T08:40:00;98525.66;;;19.33;78.34
10618;BME280;5356;43.526;26.534;2023-03-25T08:42:26;98518.34;;;19.52;77.62
10618;BME280;5356;43.526;26.534;2023-03-25T08:44:51;98515.63;;;19.71;76.53
10618;BME280;5356;43.526;26.534;2023-03-25T08:47:16;98516.75;;;19.70;75.33
10618;BME280;5356;43.526;26.534;2023-03-25T08:49:42;98512.56;;;19.92;75.40
10618;BME280;5356;43.526;26.534;2023-03-25T08:52:07;98513.88;;;19.94;70.11
10618;BME280;5356;43.526;26.534;2023-03-25T08:54:34;98513.19;;;20.03;69.17
10618;BME280;5356;43.526;26.534;2023-03-25T08:57:00;98513.09;;;19.94;64.21
10618;BME280;5356;43.526;26.534;2023-03-25T08:59:25;98518.44;;;20.13;66.10
10618;BME280;5356;43.526;26.534;2023-03-25T09:01:51;98516.72;;;20.31;64.53
10618;BME280;5356;43.526;26.534;2023-03-25T09:04:16;98513.53;;;20.42;64.14
10618;BME280;5356;43.526;26.534;2023-03-25T09:06:42;98500.69;;;20.34;62.53
10618;BME280;5356;43.526;26.534;2023-03-25T09:09:07;98509.50;;;20.40;62.70
10618;BME280;5356;43.526;26.534;2023-03-25T09:11:35;98500.22;;;20.60;63.76
10618;BME280;5356;43.526;26.534;2023-03-25T09:14:00;98492.50;;;20.67;62.08
10618;BME280;5356;43.526;26.534;2023-03-25T09:16:32;98488.50;;;20.65;61.37
10618;BME280;5356;43.526;26.534;2023-03-25T09:18:58;98490.78;;;20.71;60.99
10618;BME280;5356;43.526;26.534;2023-03-25T09:21:24;98495.78;;;20.78;60.41
10618;BME280;5356;43.526;26.534;2023-03-25T09:23:49;98488.25;;;20.75;59.45
10618;BME280;5356;43.526;26.534;2023-03-25T09:26:15;98485.25;;;20.76;59.46
10618;BME280;5356;43.526;26.534;2023-03-25T09:28:40;98481.44;;;20.77;59.04
10618;BME280;5356;43.526;26.534;2023-03-25T09:31:06;98485.41;;;20.94;59.43
10618;BME280;5356;43.526;26.534;2023-03-25T09:33:34;98478.91;;;21.17;59.55
10618;BME280;5356;43.526;26.534;2023-03-25T09:36:00;98473.31;;;21.36;58.80
10618;BME280;5356;43.526;26.534;2023-03-25T09:38:26;98474.34;;;21.40;58.36
10618;BME280;5356;43.526;26.534;2023-03-25T09:40:52;98471.22;;;21.33;56.89
10618;BME280;5356;43.526;26.534;2023-03-25T09:43:36;98461.31;;;21.51;57.21
10618;BME280;5356;43.526;26.534;2023-03-25T09:46:05;98455.28;;;21.54;56.85
10618;BME280;5356;43.526;26.534;2023-03-25T09:48:39;98455.53;;;21.66;55.25
10618;BME280;5356;43.526;26.534;2023-03-25T09:51:17;98452.88;;;21.75;56.04
10618;BME280;5356;43.526;26.534;2023-03-25T09:53:59;98447.81;;;21.91;55.65
10618;BME280;5356;43.526;26.534;2023-03-25T09:56:28;98450.41;;;21.96;54.13
10618;BME280;5356;43.526;26.534;2023-03-25T09:59:00;98447.81;;;21.91;52.79
10618;BME280;5356;43.526;26.534;2023-03-25T10:01:50;98453.13;;;21.96;53.49
10618;BME280;5356;43.526;26.534;2023-03-25T10:07:13;98453.44;;;22.26;52.45
10618;BME280;5356;43.526;26.534;2023-03-25T10:09:46;98451.84;;;22.33;50.66
10618;BME280;5356;43.526;26.534;2023-03-25T10:12:31;98443.88;;;22.37;47.60
10618;BME280;5356;43.526;26.534;2023-03-25T10:18:04;98433.06;;;22.54;44.88
10618;BME280;5356;43.526;26.534;2023-03-25T10:21:02;98424.78;;;22.59;44.66
10618;BME280;5356;43.526;26.534;2023-03-25T10:23:43;98424.00;;;22.76;45.47
10618;BME280;5356;43.526;26.534;2023-03-25T10:26:28;98427.34;;;22.82;45.37
10618;BME280;5356;43.526;26.534;2023-03-25T10:29:06;98420.97;;;22.95;44.94
10618;BME280;5356;43.526;26.534;2023-03-25T10:31:39;98413.44;;;22.92;44.06
10618;BME280;5356;43.526;26.534;2023-03-25T10:34:15;98410.22;;;22.81;43.48
10618;BME280;5356;43.526;26.534;2023-03-25T10:36:52;98411.69;;;22.79;43.24
10618;BME280;5356;43.526;26.534;2023-03-25T10:39:24;98410.91;;;22.96;43.58
10618;BME280;5356;43.526;26.534;2023-03-25T10:42:09;98409.00;;;23.05;43.44
10618;BME280;5356;43.526;26.534;2023-03-25T10:44:39;98401.47;;;23.11;42.94
10618;BME280;5356;43.526;26.534;2023-03-25T10:47:07;98405.47;;;23.13;41.71
10618;BME280;5356;43.526;26.534;2023-03-25T10:49:36;98392.66;;;23.22;42.59
10618;BME280;5356;43.526;26.534;2023-03-25T10:52:02;98391.50;;;23.32;42.39
10618;BME280;5356;43.526;26.534;2023-03-25T10:54:35;98381.91;;;23.35;41.64
10618;BME280;5356;43.526;26.534;2023-03-25T10:57:04;98392.81;;;23.26;41.26
10618;BME280;5356;43.526;26.534;2023-03-25T10:59:57;98380.50;;;23.20;41.14
10618;BME280;5356;43.526;26.534;2023-03-25T11:02:26;98377.47;;;23.13;40.03
10618;BME280;5356;43.526;26.534;2023-03-25T11:04:56;98389.63;;;23.06;39.57
10618;BME280;5356;43.526;26.534;2023-03-25T11:07:34;98371.59;;;22.93;39.16
10618;BME280;5356;43.526;26.534;2023-03-25T11:10:37;98360.38;;;22.95;39.53
10618;BME280;5356;43.526;26.534;2023-03-25T11:13:03;98365.19;;;22.89;39.60
10618;BME280;5356;43.526;26.534;2023-03-25T11:15:35;98361.03;;;22.83;38.91
10618;BME280;5356;43.526;26.534;2023-03-25T11:18:07;98359.59;;;22.94;38.52
10618;BME280;5356;43.526;26.534;2023-03-25T11:20:48;98354.47;;;22.84;38.70
10618;BME280;5356;43.526;26.534;2023-03-25T11:23:25;98350.97;;;22.75;39.31
10618;BME280;5356;43.526;26.534;2023-03-25T11:25:53;98355.13;;;22.72;39.95
10618;BME280;5356;43.526;26.534;2023-03-25T11:28:47;98350.03;;;22.53;39.25
10618;BME280;5356;43.526;26.534;2023-03-25T11:31:16;98354.00;;;22.38;40.42
10618;BME280;5356;43.526;26.534;2023-03-25T11:34:20;98347.28;;;22.45;40.69
10618;BME280;5356;43.526;26.534;2023-03-25T11:39:39;98345.84;;;22.30;41.26
10618;BME280;5356;43.526;26.534;2023-03-25T11:42:32;98339.31;;;22.31;40.51
10618;BME280;5356;43.526;26.534;2023-03-25T11:45:00;98340.59;;;22.42;40.82
10618;BME280;5356;43.526;26.534;2023-03-25T11:47:33;98342.69;;;22.62;40.73
10618;BME280;5356;43.526;26.534;2023-03-25T11:50:00;98335.97;;;22.69;40.44
10618;BME280;5356;43.526;26.534;2023-03-25T11:52:48;98337.09;;;22.68;40.13
10618;BME280;5356;43.526;26.534;2023-03-25T11:55:26;98320.31;;;22.66;39.81
10618;BME280;5356;43.526;26.534;2023-03-25T11:57:53;98330.38;;;22.56;39.69
10618;BME280;5356;43.526;26.534;2023-03-25T12:05:36;98306.41;;;22.50;40.20
10618;BME280;5356;43.526;26.534;2023-03-25T12:08:12;98305.31;;;22.42;39.70
10618;BME280;5356;43.526;26.534;2023-03-25T12:11:06;98323.19;;;22.34;40.41
10618;BME280;5356;43.526;26.534;2023-03-25T12:36:05;98303.34;;;22.86;41.11
10618;BME280;5356;43.526;26.534;2023-03-25T12:38:47;98313.41;;;23.03;40.41
10618;BME280;5356;43.526;26.534;2023-03-25T12:44:05;98309.84;;;23.28;39.77
10618;BME280;5356;43.526;26.534;2023-03-25T12:50:10;98294.97;;;23.26;39.36
10618;BME280;5356;43.526;26.534;2023-03-25T12:58:39;98284.34;;;23.80;39.80
10618;BME280;5356;43.526;26.534;2023-03-25T13:07:09;98289.34;;;23.69;39.24
10618;BME280;5356;43.526;26.534;2023-03-25T13:15:22;98284.50;;;24.05;40.44
10618;BME280;5356;43.526;26.534;2023-03-25T13:21:19;98277.69;;;23.98;40.04
10618;BME280;5356;43.526;26.534;2023-03-25T13:23:51;98271.75;;;23.96;40.80
10618;BME280;5356;43.526;26.534;2023-03-25T13:26:22;98267.38;;;23.83;40.95
10618;BME280;5356;43.526;26.534;2023-03-25T13:29:15;98267.59;;;23.99;41.09
10618;BME280;5356;43.526;26.534;2023-03-25T13:31:47;98277.56;;;24.16;41.40
10618;BME280;5356;43.526;26.534;2023-03-25T13:34:39;98269.44;;;24.07;41.05
10618;BME280;5356;43.526;26.534;2023-03-25T13:37:35;98267.00;;;23.93;41.40
10618;BME280;5356;43.526;26.534;2023-03-25T13:45:16;98260.25;;;24.20;40.98
10618;BME280;5356;43.526;26.534;2023-03-25T13:47:46;98261.03;;;24.21;40.29
10618;BME280;5356;43.526;26.534;2023-03-25T13:50:26;98267.22;;;24.09;40.11
10618;BME280;5356;43.526;26.534;2023-03-25T13:53:02;98254.19;;;24.15;39.56
10618;BME280;5356;43.526;26.534;2023-03-25T13:55:42;98258.03;;;24.14;39.74
10618;BME280;5356;43.526;26.534;2023-03-25T14:11:46;98253.09;;;24.28;38.67
10618;BME280;5356;43.526;26.534;2023-03-25T14:14:16;98244.38;;;24.44;38.16
10618;BME280;5356;43.526;26.534;2023-03-25T14:16:52;98245.75;;;24.50;37.43
10618;BME280;5356;43.526;26.534;2023-03-25T14:19:29;98242.56;;;24.48;37.70
10618;BME280;5356;43.526;26.534;2023-03-25T14:21:55;98252.00;;;24.08;37.76
10618;BME280;5356;43.526;26.534;2023-03-25T14:26:54;98251.84;;;23.54;38.56
10618;BME280;5356;43.526;26.534;2023-03-25T14:29:42;98249.53;;;23.35;38.88
10618;BME280;5356;43.526;26.534;2023-03-25T14:34:41;98246.19;;;22.82;38.95
10618;BME280;5356;43.526;26.534;2023-03-25T14:44:35;98250.06;;;22.03;40.43
10618;BME280;5356;43.526;26.534;2023-03-25T14:49:52;98258.16;;;21.86;40.98
10618;BME280;5356;43.526;26.534;2023-03-25T14:55:17;98253.31;;;21.65;41.72
10618;BME280;5356;43.526;26.534;2023-03-25T14:57:43;98255.06;;;21.52;41.99
10618;BME280;5356;43.526;26.534;2023-03-25T15:00:22;98261.09;;;21.41;42.07
10618;BME280;5356;43.526;26.534;2023-03-25T15:02:53;98264.09;;;21.39;42.23
10618;BME280;5356;43.526;26.534;2023-03-25T15:05:27;98259.38;;;21.22;42.74
10618;BME280;5356;43.526;26.534;2023-03-25T15:10:31;98258.25;;;21.15;42.95
10618;BME280;5356;43.526;26.534;2023-03-25T15:13:27;98259.31;;;21.05;43.24
10618;BME280;5356;43.526;26.534;2023-03-25T15:15:58;98257.50;;;21.00;42.97
10618;BME280;5356;43.526;26.534;2023-03-25T15:29:26;98271.28;;;20.81;43.59
10618;BME280;5356;43.526;26.534;2023-03-25T15:38:15;98266.59;;;20.51;44.32
10618;BME280;5356;43.526;26.534;2023-03-25T15:46:25;98260.06;;;20.29;44.78
10618;BME280;5356;43.526;26.534;2023-03-25T15:48:59;98267.69;;;20.27;44.77
10618;BME280;5356;43.526;26.534;2023-03-25T15:56:46;98260.41;;;20.14;45.52